OVO8657 ZGSZ-ZSJX
Flight info
| Callsign | OVO8657 |
|---|---|
| Flight time | 1h 39m |
| Altitude | 37100 |
| Route | K0843S1130 DCT SULAS V17 UBDOB V18 XEBUL G471 EGEDA/K0852S1100 G471 PLT/K0837S1130 A599 KAKIS DCT |
| Aircraft | A319/M-SABDE3FGHIKRWXY/LB1 |
Departure
| Time | 2026-04-28 11:05 |
|---|---|
| Airport | Shenzhen Bao'an International Airport (ZGSZ) |
Arrival
| Time | 2026-04-28 12:44 |
|---|---|
| Airport | Jiaxing Nanhu Airport (ZSJX) |
| Time | Latitude | Longitude | Altitude | Speed | Heading |
|---|---|---|---|---|---|
| 2026-04-28 10:32 | 22.63267 | 113.80297 | 16 ft | 0 kts | 153° |
| 2026-04-28 10:49 | 22.63270 | 113.80295 | 15 ft | 3 kts | 153° |
| 2026-04-28 10:49 | 22.63294 | 113.80283 | 17 ft | 4 kts | 160° |
| 2026-04-28 10:49 | 22.63320 | 113.80276 | 17 ft | 4 kts | 183° |
| 2026-04-28 10:50 | 22.63338 | 113.80283 | 17 ft | 1 kts | 243° |
| 2026-04-28 10:52 | 22.63337 | 113.80281 | 16 ft | 1 kts | 243° |
| 2026-04-28 10:52 | 22.63327 | 113.80259 | 17 ft | 5 kts | 243° |
| 2026-04-28 10:52 | 22.63306 | 113.80214 | 16 ft | 8 kts | 243° |
| 2026-04-28 10:53 | 22.63277 | 113.80151 | 15 ft | 11 kts | 246° |
| 2026-04-28 10:53 | 22.63242 | 113.80073 | 15 ft | 13 kts | 244° |
| 2026-04-28 10:53 | 22.63272 | 113.80004 | 15 ft | 12 kts | 338° |
| 2026-04-28 10:53 | 22.63355 | 113.79960 | 15 ft | 14 kts | 333° |
| 2026-04-28 10:54 | 22.63442 | 113.79912 | 15 ft | 15 kts | 333° |
| 2026-04-28 10:54 | 22.63537 | 113.79860 | 15 ft | 16 kts | 333° |
| 2026-04-28 10:54 | 22.63636 | 113.79805 | 15 ft | 17 kts | 333° |
| 2026-04-28 10:54 | 22.63746 | 113.79744 | 15 ft | 18 kts | 333° |
| 2026-04-28 10:55 | 22.63861 | 113.79681 | 15 ft | 19 kts | 335° |
| 2026-04-28 10:55 | 22.63985 | 113.79613 | 15 ft | 21 kts | 333° |
| 2026-04-28 10:55 | 22.64119 | 113.79540 | 16 ft | 22 kts | 333° |
| 2026-04-28 10:55 | 22.64256 | 113.79465 | 16 ft | 23 kts | 333° |
| 2026-04-28 10:56 | 22.64405 | 113.79384 | 16 ft | 24 kts | 333° |
| 2026-04-28 10:56 | 22.64560 | 113.79299 | 16 ft | 26 kts | 333° |
| 2026-04-28 10:56 | 22.64723 | 113.79210 | 16 ft | 27 kts | 333° |
| 2026-04-28 10:56 | 22.64892 | 113.79117 | 16 ft | 28 kts | 333° |
| 2026-04-28 10:57 | 22.65062 | 113.79022 | 16 ft | 27 kts | 333° |
| 2026-04-28 10:57 | 22.65231 | 113.78929 | 16 ft | 27 kts | 333° |
| 2026-04-28 10:57 | 22.65396 | 113.78838 | 16 ft | 26 kts | 333° |
| 2026-04-28 10:57 | 22.65561 | 113.78748 | 17 ft | 26 kts | 333° |
| 2026-04-28 10:58 | 22.65720 | 113.78661 | 17 ft | 26 kts | 333° |
| 2026-04-28 10:58 | 22.65879 | 113.78574 | 17 ft | 25 kts | 333° |
| 2026-04-28 10:58 | 22.66032 | 113.78490 | 16 ft | 25 kts | 333° |
| 2026-04-28 10:58 | 22.66184 | 113.78406 | 16 ft | 24 kts | 333° |
| 2026-04-28 10:59 | 22.66296 | 113.78345 | 17 ft | 9 kts | 333° |
| 2026-04-28 10:59 | 22.66347 | 113.78317 | 16 ft | 7 kts | 333° |
| 2026-04-28 10:59 | 22.66364 | 113.78274 | 16 ft | 7 kts | 256° |
| 2026-04-28 10:59 | 22.66341 | 113.78222 | 16 ft | 9 kts | 243° |
| 2026-04-28 11:00 | 22.66311 | 113.78158 | 16 ft | 10 kts | 243° |
| 2026-04-28 11:00 | 22.66276 | 113.78082 | 16 ft | 12 kts | 243° |
| 2026-04-28 11:00 | 22.66235 | 113.77994 | 16 ft | 14 kts | 243° |
| 2026-04-28 11:00 | 22.66189 | 113.77894 | 16 ft | 16 kts | 243° |
| 2026-04-28 11:01 | 22.66102 | 113.77827 | 16 ft | 17 kts | 195° |
| 2026-04-28 11:01 | 22.65979 | 113.77796 | 16 ft | 19 kts | 203° |
| 2026-04-28 11:01 | 22.65934 | 113.77730 | 16 ft | 1 kts | 243° |
| 2026-04-28 11:03 | 22.65931 | 113.77723 | 16 ft | 3 kts | 243° |
| 2026-04-28 11:03 | 22.65920 | 113.77699 | 16 ft | 4 kts | 243° |
| 2026-04-28 11:03 | 22.65902 | 113.77662 | 16 ft | 7 kts | 240° |
| 2026-04-28 11:04 | 22.65861 | 113.77656 | 16 ft | 7 kts | 153° |
| 2026-04-28 11:04 | 22.65784 | 113.77698 | 16 ft | 23 kts | 153° |
| 2026-04-28 11:04 | 22.65482 | 113.77863 | 17 ft | 75 kts | 153° |
| 2026-04-28 11:04 | 22.64861 | 113.78202 | 17 ft | 124 kts | 153° |
| 2026-04-28 11:05 | 22.63942 | 113.78697 | 126 ft | 157 kts | 154° |
| 2026-04-28 11:05 | 22.62986 | 113.79206 | 714 ft | 158 kts | 156° |
| 2026-04-28 11:05 | 22.61885 | 113.79291 | 1215 ft | 167 kts | 195° |
| 2026-04-28 11:05 | 22.60797 | 113.78875 | 1894 ft | 165 kts | 194° |
| 2026-04-28 11:06 | 22.59691 | 113.78566 | 2509 ft | 165 kts | 192° |
| 2026-04-28 11:06 | 22.58569 | 113.78282 | 3073 ft | 165 kts | 192° |
| 2026-04-28 11:06 | 22.57409 | 113.77993 | 3433 ft | 180 kts | 192° |
| 2026-04-28 11:06 | 22.56107 | 113.77666 | 3688 ft | 204 kts | 192° |
| 2026-04-28 11:07 | 22.54642 | 113.77293 | 4069 ft | 228 kts | 193° |
| 2026-04-28 11:07 | 22.53046 | 113.76882 | 4681 ft | 241 kts | 193° |
| 2026-04-28 11:07 | 22.51397 | 113.76453 | 5507 ft | 246 kts | 194° |
| 2026-04-28 11:07 | 22.49834 | 113.75703 | 6348 ft | 250 kts | 216° |
| 2026-04-28 11:08 | 22.48676 | 113.74293 | 7187 ft | 254 kts | 241° |
| 2026-04-28 11:08 | 22.48165 | 113.72464 | 8032 ft | 258 kts | 265° |
| 2026-04-28 11:08 | 22.48206 | 113.70514 | 8888 ft | 261 kts | 271° |
| 2026-04-28 11:08 | 22.48438 | 113.68562 | 9721 ft | 267 kts | 287° |
| 2026-04-28 11:09 | 22.49481 | 113.66887 | 10429 ft | 277 kts | 317° |
| 2026-04-28 11:09 | 22.51272 | 113.65935 | 10772 ft | 304 kts | 348° |
| 2026-04-28 11:09 | 22.53466 | 113.65761 | 10990 ft | 329 kts | 358° |
| 2026-04-28 11:09 | 22.55837 | 113.65830 | 11138 ft | 353 kts | 2° |
| 2026-04-28 11:10 | 22.58352 | 113.66011 | 11430 ft | 369 kts | 3° |
| 2026-04-28 11:10 | 22.60936 | 113.66225 | 11987 ft | 375 kts | 4° |
| 2026-04-28 11:10 | 22.63476 | 113.66915 | 12573 ft | 382 kts | 24° |
| 2026-04-28 11:10 | 22.65679 | 113.68534 | 13174 ft | 387 kts | 45° |
| 2026-04-28 11:11 | 22.67214 | 113.70914 | 13750 ft | 389 kts | 67° |
| 2026-04-28 11:11 | 22.67872 | 113.73753 | 14271 ft | 391 kts | 84° |
| 2026-04-28 11:11 | 22.68202 | 113.76683 | 14800 ft | 395 kts | 85° |
| 2026-04-28 11:11 | 22.68513 | 113.79660 | 15319 ft | 400 kts | 85° |
| 2026-04-28 11:12 | 22.68819 | 113.82665 | 15823 ft | 404 kts | 85° |
| 2026-04-28 11:12 | 22.69130 | 113.85711 | 16329 ft | 409 kts | 85° |
| 2026-04-28 11:12 | 22.69449 | 113.88786 | 16866 ft | 414 kts | 84° |
| 2026-04-28 11:12 | 22.69776 | 113.91901 | 17379 ft | 418 kts | 84° |
| 2026-04-28 11:13 | 22.70109 | 113.95050 | 17886 ft | 423 kts | 84° |
| 2026-04-28 11:13 | 22.70523 | 113.98224 | 18342 ft | 429 kts | 78° |
| 2026-04-28 11:13 | 22.71419 | 114.01312 | 18793 ft | 432 kts | 66° |
| 2026-04-28 11:13 | 22.72837 | 114.04168 | 19249 ft | 434 kts | 55° |
| 2026-04-28 11:14 | 22.74738 | 114.06716 | 19723 ft | 434 kts | 43° |
| 2026-04-28 11:14 | 22.76998 | 114.08880 | 20198 ft | 435 kts | 37° |
| 2026-04-28 11:14 | 22.79335 | 114.10984 | 20665 ft | 438 kts | 37° |
| 2026-04-28 11:14 | 22.81682 | 114.13103 | 21111 ft | 440 kts | 38° |
| 2026-04-28 11:15 | 22.84032 | 114.15230 | 21551 ft | 442 kts | 38° |
| 2026-04-28 11:15 | 22.86404 | 114.17380 | 21980 ft | 445 kts | 38° |
| 2026-04-28 11:15 | 22.88780 | 114.19531 | 22408 ft | 447 kts | 38° |
| 2026-04-28 11:15 | 22.91173 | 114.21698 | 22844 ft | 449 kts | 38° |
| 2026-04-28 11:16 | 22.92760 | 114.23143 | 23119 ft | 450 kts | 38° |
| 2026-04-28 11:16 | 22.95153 | 114.25356 | 23504 ft | 453 kts | 39° |
| 2026-04-28 11:16 | 22.97541 | 114.27592 | 23844 ft | 455 kts | 39° |
| 2026-04-28 11:16 | 22.99936 | 114.29850 | 24173 ft | 457 kts | 39° |
| 2026-04-28 11:17 | 23.02339 | 114.32119 | 24497 ft | 459 kts | 39° |
| 2026-04-28 11:17 | 23.04757 | 114.34399 | 24819 ft | 461 kts | 39° |
| 2026-04-28 11:17 | 23.07187 | 114.36685 | 25156 ft | 463 kts | 39° |
| 2026-04-28 11:17 | 23.09629 | 114.38977 | 25470 ft | 465 kts | 39° |
| 2026-04-28 11:18 | 23.12088 | 114.41282 | 25774 ft | 468 kts | 39° |
| 2026-04-28 11:18 | 23.14560 | 114.43596 | 26087 ft | 470 kts | 39° |
| 2026-04-28 11:18 | 23.17043 | 114.45912 | 26390 ft | 472 kts | 38° |
| 2026-04-28 11:18 | 23.19575 | 114.48195 | 26691 ft | 474 kts | 37° |
| 2026-04-28 11:19 | 23.22147 | 114.50434 | 26999 ft | 475 kts | 36° |
| 2026-04-28 11:19 | 23.24755 | 114.52661 | 27292 ft | 477 kts | 36° |
| 2026-04-28 11:19 | 23.27381 | 114.54893 | 27589 ft | 480 kts | 36° |
| 2026-04-28 11:19 | 23.30010 | 114.57136 | 27877 ft | 482 kts | 36° |
| 2026-04-28 11:20 | 23.32652 | 114.59393 | 28160 ft | 484 kts | 35° |
| 2026-04-28 11:20 | 23.35476 | 114.61369 | 28426 ft | 483 kts | 26° |
| 2026-04-28 11:20 | 23.38533 | 114.62875 | 28704 ft | 482 kts | 17° |
| 2026-04-28 11:20 | 23.41761 | 114.63868 | 28973 ft | 482 kts | 9° |
| 2026-04-28 11:21 | 23.45037 | 114.64654 | 29233 ft | 484 kts | 9° |
| 2026-04-28 11:21 | 23.48335 | 114.65446 | 29504 ft | 486 kts | 9° |
| 2026-04-28 11:21 | 23.51640 | 114.66242 | 29757 ft | 488 kts | 10° |
| 2026-04-28 11:21 | 23.54961 | 114.67047 | 30071 ft | 488 kts | 10° |
| 2026-04-28 11:22 | 23.58274 | 114.67856 | 30400 ft | 487 kts | 10° |
| 2026-04-28 11:22 | 23.61579 | 114.68664 | 30739 ft | 486 kts | 9° |
| 2026-04-28 11:22 | 23.64878 | 114.69470 | 31078 ft | 486 kts | 9° |
| 2026-04-28 11:22 | 23.68170 | 114.70274 | 31418 ft | 485 kts | 9° |
| 2026-04-28 11:23 | 23.71465 | 114.71079 | 31782 ft | 484 kts | 9° |
| 2026-04-28 11:23 | 23.74748 | 114.71880 | 32148 ft | 483 kts | 9° |
| 2026-04-28 11:23 | 23.78027 | 114.72679 | 32524 ft | 482 kts | 9° |
| 2026-04-28 11:23 | 23.81293 | 114.73475 | 32900 ft | 481 kts | 9° |
| 2026-04-28 11:24 | 23.84552 | 114.74268 | 33284 ft | 480 kts | 9° |
| 2026-04-28 11:24 | 23.87811 | 114.75065 | 33689 ft | 478 kts | 9° |
| 2026-04-28 11:24 | 23.91050 | 114.75861 | 34076 ft | 477 kts | 9° |
| 2026-04-28 11:24 | 23.94283 | 114.76656 | 34447 ft | 476 kts | 9° |
| 2026-04-28 11:25 | 23.97515 | 114.77447 | 34832 ft | 474 kts | 8° |
| 2026-04-28 11:25 | 24.00727 | 114.78230 | 35213 ft | 473 kts | 8° |
| 2026-04-28 11:25 | 24.03935 | 114.79008 | 35572 ft | 471 kts | 8° |
| 2026-04-28 11:25 | 24.07132 | 114.79787 | 35913 ft | 470 kts | 8° |
| 2026-04-28 11:26 | 24.10320 | 114.80569 | 36250 ft | 469 kts | 8° |
| 2026-04-28 11:26 | 24.13499 | 114.81353 | 36585 ft | 468 kts | 8° |
| 2026-04-28 11:26 | 24.16673 | 114.82135 | 36890 ft | 468 kts | 8° |
| 2026-04-28 11:27 | 24.23006 | 114.83693 | 36991 ft | 465 kts | 8° |
| 2026-04-28 11:27 | 24.29311 | 114.85240 | 36989 ft | 464 kts | 8° |
| 2026-04-28 11:28 | 24.35610 | 114.86795 | 36993 ft | 464 kts | 8° |
| 2026-04-28 11:28 | 24.41909 | 114.88355 | 36995 ft | 464 kts | 8° |
| 2026-04-28 11:29 | 24.48202 | 114.89913 | 36994 ft | 464 kts | 8° |
| 2026-04-28 11:29 | 24.54505 | 114.91479 | 36987 ft | 464 kts | 8° |
| 2026-04-28 11:30 | 24.60801 | 114.93043 | 36989 ft | 464 kts | 7° |
| 2026-04-28 11:30 | 24.70223 | 114.95363 | 36987 ft | 465 kts | 7° |
| 2026-04-28 11:31 | 24.76535 | 114.96926 | 36989 ft | 465 kts | 7° |
| 2026-04-28 11:31 | 24.82855 | 114.98475 | 36988 ft | 466 kts | 7° |
| 2026-04-28 11:32 | 24.89184 | 115.00011 | 36986 ft | 466 kts | 7° |
| 2026-04-28 11:32 | 24.95519 | 115.01546 | 36982 ft | 466 kts | 7° |
| 2026-04-28 11:33 | 25.01855 | 115.03094 | 36980 ft | 467 kts | 7° |
| 2026-04-28 11:33 | 25.08200 | 115.04644 | 36976 ft | 467 kts | 7° |
| 2026-04-28 11:34 | 25.14546 | 115.06193 | 36981 ft | 467 kts | 7° |
| 2026-04-28 11:34 | 25.20891 | 115.07740 | 36978 ft | 467 kts | 7° |
| 2026-04-28 11:35 | 25.27244 | 115.09298 | 36979 ft | 467 kts | 7° |
| 2026-04-28 11:35 | 25.33614 | 115.10078 | 36975 ft | 455 kts | 350° |
| 2026-04-28 11:36 | 25.39663 | 115.08647 | 36963 ft | 439 kts | 332° |
| 2026-04-28 11:36 | 25.45187 | 115.05851 | 36963 ft | 437 kts | 329° |
| 2026-04-28 11:37 | 25.50707 | 115.03021 | 36963 ft | 437 kts | 329° |
| 2026-04-28 11:37 | 25.56189 | 115.00209 | 36962 ft | 438 kts | 329° |
| 2026-04-28 11:38 | 25.61724 | 114.97361 | 36959 ft | 438 kts | 329° |
| 2026-04-28 11:38 | 25.67247 | 114.94514 | 36958 ft | 438 kts | 329° |
| 2026-04-28 11:39 | 25.72773 | 114.91667 | 36955 ft | 439 kts | 330° |
| 2026-04-28 11:39 | 25.75728 | 114.90658 | 36949 ft | 451 kts | 345° |
| 2026-04-28 11:39 | 25.78895 | 114.90491 | 36955 ft | 463 kts | 360° |
| 2026-04-28 11:40 | 25.82080 | 114.91252 | 36912 ft | 476 kts | 15° |
| 2026-04-28 11:40 | 25.85057 | 114.92958 | 36939 ft | 490 kts | 32° |
| 2026-04-28 11:40 | 25.87609 | 114.95520 | 36948 ft | 498 kts | 43° |
| 2026-04-28 11:40 | 25.89971 | 114.98324 | 36941 ft | 498 kts | 44° |
| 2026-04-28 11:41 | 25.94685 | 115.03981 | 36948 ft | 499 kts | 44° |
| 2026-04-28 11:41 | 25.99406 | 115.09644 | 36951 ft | 499 kts | 44° |
| 2026-04-28 11:42 | 26.04139 | 115.15301 | 36950 ft | 499 kts | 43° |
| 2026-04-28 11:42 | 26.08867 | 115.20960 | 36957 ft | 500 kts | 43° |
| 2026-04-28 11:43 | 26.13596 | 115.26629 | 36966 ft | 500 kts | 43° |
| 2026-04-28 11:43 | 26.18325 | 115.32302 | 36971 ft | 500 kts | 43° |
| 2026-04-28 11:44 | 26.23055 | 115.37980 | 36975 ft | 500 kts | 44° |
| 2026-04-28 11:44 | 26.27775 | 115.43663 | 36983 ft | 499 kts | 44° |
| 2026-04-28 11:45 | 26.32497 | 115.49331 | 36986 ft | 499 kts | 43° |
| 2026-04-28 11:45 | 26.37227 | 115.54998 | 36994 ft | 499 kts | 43° |
| 2026-04-28 11:46 | 26.41955 | 115.60678 | 36989 ft | 499 kts | 43° |
| 2026-04-28 11:46 | 26.46671 | 115.66352 | 36991 ft | 499 kts | 44° |
| 2026-04-28 11:47 | 26.51387 | 115.72031 | 36987 ft | 498 kts | 44° |
| 2026-04-28 11:47 | 26.56093 | 115.77709 | 36985 ft | 498 kts | 44° |
| 2026-04-28 11:48 | 26.60800 | 115.83394 | 36991 ft | 499 kts | 44° |
| 2026-04-28 11:48 | 26.65482 | 115.89053 | 36996 ft | 499 kts | 44° |
| 2026-04-28 11:49 | 26.70224 | 115.94795 | 36996 ft | 499 kts | 44° |
| 2026-04-28 11:49 | 26.74928 | 116.00499 | 36996 ft | 499 kts | 43° |
| 2026-04-28 11:50 | 26.79656 | 116.06176 | 36995 ft | 499 kts | 43° |
| 2026-04-28 11:50 | 26.84367 | 116.11811 | 36991 ft | 499 kts | 43° |
| 2026-04-28 11:51 | 26.89105 | 116.17482 | 36991 ft | 499 kts | 43° |
| 2026-04-28 11:51 | 26.93832 | 116.23178 | 36990 ft | 499 kts | 43° |
| 2026-04-28 11:52 | 26.98549 | 116.28875 | 36993 ft | 499 kts | 43° |
| 2026-04-28 11:52 | 27.03271 | 116.34574 | 36985 ft | 498 kts | 43° |
| 2026-04-28 11:53 | 27.07994 | 116.40277 | 36982 ft | 498 kts | 43° |
| 2026-04-28 11:53 | 27.12712 | 116.45976 | 36986 ft | 499 kts | 43° |
| 2026-04-28 11:54 | 27.17430 | 116.51694 | 36995 ft | 499 kts | 43° |
| 2026-04-28 11:54 | 27.22145 | 116.57406 | 36983 ft | 499 kts | 43° |
| 2026-04-28 11:55 | 27.26940 | 116.63040 | 36983 ft | 498 kts | 42° |
| 2026-04-28 11:55 | 27.31788 | 116.68605 | 36987 ft | 498 kts | 41° |
| 2026-04-28 11:56 | 27.36627 | 116.74189 | 36981 ft | 499 kts | 42° |
| 2026-04-28 11:56 | 27.41437 | 116.79812 | 36991 ft | 499 kts | 42° |
| 2026-04-28 11:57 | 27.46233 | 116.85457 | 36986 ft | 498 kts | 42° |
| 2026-04-28 11:57 | 27.51035 | 116.91093 | 36986 ft | 498 kts | 42° |
| 2026-04-28 11:58 | 27.55854 | 116.96699 | 36994 ft | 498 kts | 41° |
| 2026-04-28 11:58 | 27.60697 | 117.02278 | 36998 ft | 498 kts | 41° |
| 2026-04-28 11:59 | 27.65538 | 117.07850 | 37001 ft | 497 kts | 41° |
| 2026-04-28 11:59 | 27.70363 | 117.13441 | 37008 ft | 497 kts | 41° |
| 2026-04-28 12:00 | 27.75177 | 117.19040 | 37014 ft | 497 kts | 41° |
| 2026-04-28 12:00 | 27.79985 | 117.24639 | 37021 ft | 496 kts | 41° |
| 2026-04-28 12:01 | 27.83980 | 117.29289 | 37022 ft | 496 kts | 41° |
| 2026-04-28 12:01 | 27.88782 | 117.34876 | 37031 ft | 495 kts | 41° |
| 2026-04-28 12:02 | 27.93571 | 117.40472 | 37021 ft | 495 kts | 41° |
| 2026-04-28 12:02 | 27.98370 | 117.46074 | 37026 ft | 496 kts | 41° |
| 2026-04-28 12:03 | 28.03174 | 117.51689 | 37021 ft | 497 kts | 41° |
| 2026-04-28 12:03 | 28.07990 | 117.57322 | 37028 ft | 498 kts | 41° |
| 2026-04-28 12:04 | 28.12801 | 117.62975 | 36778 ft | 499 kts | 41° |
| 2026-04-28 12:04 | 28.15196 | 117.65798 | 36522 ft | 493 kts | 41° |
| 2026-04-28 12:04 | 28.17558 | 117.68585 | 36272 ft | 487 kts | 41° |
| 2026-04-28 12:05 | 28.19893 | 117.71335 | 36032 ft | 482 kts | 41° |
| 2026-04-28 12:05 | 28.22208 | 117.74055 | 35789 ft | 477 kts | 41° |
| 2026-04-28 12:05 | 28.24506 | 117.76752 | 35560 ft | 475 kts | 42° |
| 2026-04-28 12:05 | 28.26791 | 117.79438 | 35324 ft | 474 kts | 42° |
| 2026-04-28 12:06 | 28.29082 | 117.82133 | 35091 ft | 474 kts | 42° |
| 2026-04-28 12:06 | 28.31363 | 117.84825 | 34858 ft | 473 kts | 42° |
| 2026-04-28 12:06 | 28.33647 | 117.87522 | 34628 ft | 474 kts | 43° |
| 2026-04-28 12:06 | 28.35930 | 117.90216 | 34399 ft | 474 kts | 43° |
| 2026-04-28 12:07 | 28.38218 | 117.92915 | 34173 ft | 474 kts | 43° |
| 2026-04-28 12:07 | 28.40502 | 117.95613 | 33944 ft | 474 kts | 43° |
| 2026-04-28 12:07 | 28.42783 | 117.98318 | 33691 ft | 475 kts | 43° |
| 2026-04-28 12:07 | 28.45046 | 118.01056 | 33434 ft | 476 kts | 44° |
| 2026-04-28 12:08 | 28.47290 | 118.03819 | 33184 ft | 476 kts | 44° |
| 2026-04-28 12:08 | 28.49527 | 118.06598 | 32935 ft | 477 kts | 44° |
| 2026-04-28 12:08 | 28.51762 | 118.09377 | 32688 ft | 478 kts | 44° |
| 2026-04-28 12:08 | 28.54012 | 118.12164 | 32437 ft | 478 kts | 44° |
| 2026-04-28 12:09 | 28.56274 | 118.14952 | 32190 ft | 478 kts | 44° |
| 2026-04-28 12:09 | 28.58527 | 118.17730 | 31949 ft | 478 kts | 44° |
| 2026-04-28 12:09 | 28.60785 | 118.20512 | 31706 ft | 478 kts | 44° |
| 2026-04-28 12:09 | 28.63045 | 118.23294 | 31469 ft | 479 kts | 44° |
| 2026-04-28 12:10 | 28.65304 | 118.26076 | 31236 ft | 479 kts | 44° |
| 2026-04-28 12:10 | 28.67567 | 118.28869 | 30996 ft | 480 kts | 44° |
| 2026-04-28 12:10 | 28.69826 | 118.31663 | 30766 ft | 480 kts | 45° |
| 2026-04-28 12:10 | 28.72086 | 118.34463 | 30537 ft | 481 kts | 45° |
| 2026-04-28 12:11 | 28.74348 | 118.37268 | 30310 ft | 481 kts | 45° |
| 2026-04-28 12:11 | 28.76616 | 118.40079 | 30082 ft | 481 kts | 45° |
| 2026-04-28 12:11 | 28.78884 | 118.42892 | 29827 ft | 482 kts | 45° |
| 2026-04-28 12:11 | 28.81150 | 118.45702 | 29557 ft | 482 kts | 45° |
| 2026-04-28 12:12 | 28.83422 | 118.48523 | 29295 ft | 482 kts | 45° |
| 2026-04-28 12:12 | 28.85687 | 118.51338 | 29031 ft | 482 kts | 45° |
| 2026-04-28 12:12 | 28.87957 | 118.54157 | 28771 ft | 482 kts | 45° |
| 2026-04-28 12:12 | 28.90225 | 118.56976 | 28519 ft | 483 kts | 45° |
| 2026-04-28 12:13 | 28.92493 | 118.59801 | 28263 ft | 483 kts | 46° |
| 2026-04-28 12:13 | 28.94765 | 118.62635 | 28015 ft | 484 kts | 46° |
| 2026-04-28 12:13 | 28.97040 | 118.65473 | 27766 ft | 485 kts | 46° |
| 2026-04-28 12:13 | 28.99320 | 118.68316 | 27519 ft | 485 kts | 46° |
| 2026-04-28 12:14 | 29.01598 | 118.71161 | 27281 ft | 485 kts | 46° |
| 2026-04-28 12:14 | 29.03873 | 118.74005 | 27040 ft | 486 kts | 46° |
| 2026-04-28 12:14 | 29.06148 | 118.76849 | 26803 ft | 486 kts | 46° |
| 2026-04-28 12:14 | 29.08439 | 118.79715 | 26597 ft | 487 kts | 46° |
| 2026-04-28 12:15 | 29.10721 | 118.82571 | 26632 ft | 487 kts | 46° |
| 2026-04-28 12:15 | 29.13006 | 118.85432 | 26632 ft | 487 kts | 46° |
| 2026-04-28 12:15 | 29.15293 | 118.88298 | 26640 ft | 487 kts | 46° |
| 2026-04-28 12:15 | 29.17575 | 118.91166 | 26643 ft | 487 kts | 46° |
| 2026-04-28 12:16 | 29.19849 | 118.94032 | 26644 ft | 487 kts | 46° |
| 2026-04-28 12:16 | 29.22125 | 118.96911 | 26649 ft | 487 kts | 46° |
| 2026-04-28 12:16 | 29.24399 | 118.99791 | 26652 ft | 487 kts | 46° |
| 2026-04-28 12:16 | 29.26671 | 119.02664 | 26658 ft | 487 kts | 46° |
| 2026-04-28 12:17 | 29.28946 | 119.05534 | 26662 ft | 487 kts | 46° |
| 2026-04-28 12:17 | 29.31216 | 119.08397 | 26659 ft | 486 kts | 46° |
| 2026-04-28 12:17 | 29.33493 | 119.11269 | 26656 ft | 486 kts | 46° |
| 2026-04-28 12:17 | 29.35769 | 119.14141 | 26655 ft | 486 kts | 46° |
| 2026-04-28 12:18 | 29.38036 | 119.17006 | 26662 ft | 486 kts | 46° |
| 2026-04-28 12:18 | 29.40304 | 119.19881 | 26671 ft | 486 kts | 46° |
| 2026-04-28 12:18 | 29.42570 | 119.22760 | 26661 ft | 485 kts | 46° |
| 2026-04-28 12:18 | 29.44828 | 119.25633 | 26666 ft | 485 kts | 46° |
| 2026-04-28 12:19 | 29.47089 | 119.28510 | 26667 ft | 485 kts | 46° |
| 2026-04-28 12:19 | 29.49352 | 119.31389 | 26479 ft | 486 kts | 46° |
| 2026-04-28 12:19 | 29.51611 | 119.34264 | 26198 ft | 486 kts | 46° |
| 2026-04-28 12:19 | 29.53877 | 119.37153 | 25919 ft | 486 kts | 46° |
| 2026-04-28 12:20 | 29.56137 | 119.40038 | 25645 ft | 487 kts | 46° |
| 2026-04-28 12:20 | 29.58405 | 119.42926 | 25371 ft | 487 kts | 46° |
| 2026-04-28 12:20 | 29.60681 | 119.45821 | 25103 ft | 487 kts | 46° |
| 2026-04-28 12:20 | 29.62949 | 119.48708 | 24832 ft | 486 kts | 46° |
| 2026-04-28 12:21 | 29.65202 | 119.51590 | 24568 ft | 484 kts | 46° |
| 2026-04-28 12:21 | 29.67441 | 119.54476 | 24310 ft | 482 kts | 46° |
| 2026-04-28 12:21 | 29.69661 | 119.57355 | 24048 ft | 480 kts | 47° |
| 2026-04-28 12:21 | 29.71870 | 119.60225 | 23792 ft | 478 kts | 47° |
| 2026-04-28 12:22 | 29.74074 | 119.63088 | 23501 ft | 476 kts | 47° |
| 2026-04-28 12:22 | 29.76257 | 119.65927 | 23192 ft | 473 kts | 47° |
| 2026-04-28 12:22 | 29.78431 | 119.68754 | 22877 ft | 471 kts | 47° |
| 2026-04-28 12:22 | 29.80598 | 119.71569 | 22582 ft | 468 kts | 47° |
| 2026-04-28 12:23 | 29.82753 | 119.74373 | 22287 ft | 465 kts | 47° |
| 2026-04-28 12:23 | 29.84892 | 119.77159 | 21981 ft | 463 kts | 47° |
| 2026-04-28 12:23 | 29.87014 | 119.79927 | 21687 ft | 460 kts | 47° |
| 2026-04-28 12:23 | 29.89130 | 119.82685 | 21395 ft | 458 kts | 47° |
| 2026-04-28 12:24 | 29.91290 | 119.85367 | 21097 ft | 454 kts | 40° |
| 2026-04-28 12:24 | 29.93691 | 119.87716 | 20816 ft | 451 kts | 38° |
| 2026-04-28 12:24 | 29.96047 | 119.90081 | 20535 ft | 449 kts | 39° |
| 2026-04-28 12:24 | 29.98399 | 119.92451 | 20252 ft | 447 kts | 39° |
| 2026-04-28 12:25 | 30.00658 | 119.94728 | 19981 ft | 445 kts | 39° |
| 2026-04-28 12:25 | 30.02984 | 119.97074 | 19707 ft | 443 kts | 39° |
| 2026-04-28 12:25 | 30.05302 | 119.99413 | 19432 ft | 441 kts | 39° |
| 2026-04-28 12:25 | 30.07607 | 120.01741 | 19156 ft | 439 kts | 39° |
| 2026-04-28 12:26 | 30.09904 | 120.04062 | 18888 ft | 438 kts | 39° |
| 2026-04-28 12:26 | 30.12188 | 120.06370 | 18622 ft | 436 kts | 39° |
| 2026-04-28 12:26 | 30.14467 | 120.08673 | 18353 ft | 434 kts | 39° |
| 2026-04-28 12:26 | 30.16788 | 120.10887 | 18034 ft | 431 kts | 32° |
| 2026-04-28 12:27 | 30.19262 | 120.12768 | 17727 ft | 420 kts | 30° |
| 2026-04-28 12:27 | 30.21687 | 120.14577 | 17420 ft | 410 kts | 30° |
| 2026-04-28 12:27 | 30.24053 | 120.16345 | 17119 ft | 399 kts | 30° |
| 2026-04-28 12:27 | 30.26356 | 120.18068 | 16815 ft | 390 kts | 30° |
| 2026-04-28 12:28 | 30.28608 | 120.19758 | 16523 ft | 381 kts | 30° |
| 2026-04-28 12:28 | 30.30809 | 120.21411 | 16234 ft | 374 kts | 30° |
| 2026-04-28 12:28 | 30.33039 | 120.22876 | 15941 ft | 362 kts | 17° |
| 2026-04-28 12:28 | 30.35425 | 120.23557 | 15654 ft | 347 kts | 359° |
| 2026-04-28 12:29 | 30.39908 | 120.22494 | 14865 ft | 322 kts | 324° |
| 2026-04-28 12:29 | 30.41692 | 120.21009 | 14474 ft | 313 kts | 314° |
| 2026-04-28 12:29 | 30.43366 | 120.19396 | 14078 ft | 312 kts | 314° |
| 2026-04-28 12:30 | 30.45071 | 120.17833 | 13652 ft | 315 kts | 321° |
| 2026-04-28 12:30 | 30.47086 | 120.16777 | 13312 ft | 322 kts | 339° |
| 2026-04-28 12:30 | 30.49309 | 120.16475 | 13053 ft | 325 kts | 358° |
| 2026-04-28 12:30 | 30.51530 | 120.16978 | 12798 ft | 327 kts | 17° |
| 2026-04-28 12:31 | 30.53550 | 120.18185 | 12547 ft | 325 kts | 28° |
| 2026-04-28 12:31 | 30.55467 | 120.19485 | 12301 ft | 321 kts | 28° |
| 2026-04-28 12:31 | 30.57384 | 120.20782 | 11959 ft | 316 kts | 28° |
| 2026-04-28 12:31 | 30.59293 | 120.22075 | 11518 ft | 312 kts | 28° |
| 2026-04-28 12:32 | 30.61158 | 120.23339 | 11087 ft | 308 kts | 29° |
| 2026-04-28 12:32 | 30.62999 | 120.24586 | 10662 ft | 306 kts | 29° |
| 2026-04-28 12:32 | 30.64839 | 120.25833 | 10238 ft | 305 kts | 30° |
| 2026-04-28 12:32 | 30.66664 | 120.27071 | 9821 ft | 303 kts | 30° |
| 2026-04-28 12:33 | 30.68439 | 120.28273 | 9773 ft | 286 kts | 30° |
| 2026-04-28 12:33 | 30.70098 | 120.29399 | 9760 ft | 267 kts | 30° |
| 2026-04-28 12:33 | 30.71694 | 120.30483 | 9318 ft | 266 kts | 31° |
| 2026-04-28 12:33 | 30.73298 | 120.31575 | 8921 ft | 267 kts | 31° |
| 2026-04-28 12:34 | 30.74876 | 120.32670 | 8719 ft | 262 kts | 36° |
| 2026-04-28 12:34 | 30.76046 | 120.34201 | 8501 ft | 249 kts | 68° |
| 2026-04-28 12:34 | 30.76367 | 120.36093 | 8279 ft | 234 kts | 99° |
| 2026-04-28 12:34 | 30.75815 | 120.37756 | 8056 ft | 220 kts | 131° |
| 2026-04-28 12:35 | 30.74602 | 120.38733 | 7791 ft | 214 kts | 163° |
| 2026-04-28 12:35 | 30.73101 | 120.38730 | 7371 ft | 224 kts | 195° |
| 2026-04-28 12:35 | 30.71794 | 120.37697 | 6959 ft | 237 kts | 227° |
| 2026-04-28 12:35 | 30.71117 | 120.35883 | 6536 ft | 250 kts | 260° |
| 2026-04-28 12:36 | 30.71253 | 120.33881 | 6088 ft | 258 kts | 289° |
| 2026-04-28 12:36 | 30.72209 | 120.32102 | 5652 ft | 259 kts | 320° |
| 2026-04-28 12:36 | 30.73716 | 120.31083 | 5317 ft | 251 kts | 349° |
| 2026-04-28 12:36 | 30.75397 | 120.30956 | 5068 ft | 238 kts | 15° |
| 2026-04-28 12:37 | 30.76899 | 120.31661 | 4810 ft | 226 kts | 39° |
| 2026-04-28 12:37 | 30.77946 | 120.32917 | 4561 ft | 217 kts | 59° |
| 2026-04-28 12:37 | 30.78692 | 120.34406 | 4296 ft | 210 kts | 69° |
| 2026-04-28 12:37 | 30.79027 | 120.36026 | 4039 ft | 204 kts | 85° |
| 2026-04-28 12:38 | 30.78910 | 120.37645 | 3786 ft | 201 kts | 100° |
| 2026-04-28 12:38 | 30.78451 | 120.39165 | 3538 ft | 197 kts | 105° |
| 2026-04-28 12:38 | 30.77971 | 120.40659 | 3272 ft | 192 kts | 105° |
| 2026-04-28 12:38 | 30.77516 | 120.42084 | 3026 ft | 188 kts | 105° |
| 2026-04-28 12:39 | 30.77038 | 120.43505 | 2767 ft | 185 kts | 109° |
| 2026-04-28 12:39 | 30.76536 | 120.44855 | 2527 ft | 179 kts | 107° |
| 2026-04-28 12:39 | 30.76097 | 120.46168 | 2261 ft | 174 kts | 105° |
| 2026-04-28 12:39 | 30.75689 | 120.47446 | 2061 ft | 161 kts | 104° |
| 2026-04-28 12:40 | 30.75320 | 120.48620 | 2020 ft | 148 kts | 103° |
| 2026-04-28 12:40 | 30.74977 | 120.49725 | 2020 ft | 147 kts | 104° |
| 2026-04-28 12:40 | 30.74628 | 120.50847 | 2018 ft | 148 kts | 103° |
| 2026-04-28 12:40 | 30.74274 | 120.51984 | 2029 ft | 147 kts | 103° |
| 2026-04-28 12:41 | 30.73939 | 120.53056 | 1998 ft | 134 kts | 103° |
| 2026-04-28 12:41 | 30.73632 | 120.54040 | 1888 ft | 126 kts | 102° |
| 2026-04-28 12:41 | 30.73338 | 120.54987 | 1746 ft | 124 kts | 103° |
| 2026-04-28 12:41 | 30.73048 | 120.55921 | 1595 ft | 122 kts | 103° |
| 2026-04-28 12:42 | 30.72759 | 120.56847 | 1436 ft | 121 kts | 103° |
| 2026-04-28 12:42 | 30.72565 | 120.57473 | 1327 ft | 123 kts | 103° |
| 2026-04-28 12:42 | 30.72275 | 120.58402 | 1145 ft | 125 kts | 104° |
| 2026-04-28 12:42 | 30.71971 | 120.59341 | 973 ft | 121 kts | 107° |
| 2026-04-28 12:43 | 30.71673 | 120.60278 | 804 ft | 125 kts | 105° |
| 2026-04-28 12:43 | 30.71383 | 120.61233 | 659 ft | 126 kts | 104° |
| 2026-04-28 12:43 | 30.71092 | 120.62176 | 504 ft | 124 kts | 105° |
| 2026-04-28 12:43 | 30.70801 | 120.63116 | 332 ft | 126 kts | 105° |
| 2026-04-28 12:44 | 30.70500 | 120.64081 | 171 ft | 127 kts | 104° |
| 2026-04-28 12:44 | 30.70191 | 120.65044 | 29 ft | 126 kts | 107° |
| 2026-04-28 12:44 | 30.69946 | 120.65863 | 22 ft | 86 kts | 109° |
| 2026-04-28 12:44 | 30.69796 | 120.66326 | 21 ft | 39 kts | 111° |
| 2026-04-28 12:45 | 30.69754 | 120.66498 | 23 ft | 9 kts | 89° |
| 2026-04-28 12:45 | 30.69754 | 120.66559 | 24 ft | 8 kts | 89° |
| 2026-04-28 12:45 | 30.69755 | 120.66624 | 24 ft | 8 kts | 89° |
| 2026-04-28 12:45 | 30.69757 | 120.66692 | 24 ft | 9 kts | 87° |
| 2026-04-28 12:46 | 30.69787 | 120.66744 | 24 ft | 9 kts | 14° |
| 2026-04-28 12:46 | 30.69837 | 120.66711 | 23 ft | 9 kts | 299° |
| 2026-04-28 12:46 | 30.69859 | 120.66645 | 24 ft | 9 kts | 290° |
| 2026-04-28 12:46 | 30.69879 | 120.66578 | 23 ft | 9 kts | 289° |
| 2026-04-28 12:47 | 30.69901 | 120.66508 | 23 ft | 9 kts | 289° |
| 2026-04-28 12:47 | 30.69922 | 120.66439 | 23 ft | 9 kts | 289° |
| 2026-04-28 12:47 | 30.69943 | 120.66370 | 23 ft | 10 kts | 290° |
| 2026-04-28 12:47 | 30.69969 | 120.66290 | 25 ft | 11 kts | 292° |
| 2026-04-28 12:48 | 30.69997 | 120.66210 | 23 ft | 11 kts | 290° |
| 2026-04-28 12:48 | 30.70023 | 120.66128 | 22 ft | 11 kts | 290° |
| 2026-04-28 12:48 | 30.70049 | 120.66046 | 22 ft | 11 kts | 290° |
| 2026-04-28 12:48 | 30.70075 | 120.65966 | 23 ft | 10 kts | 290° |
| 2026-04-28 12:49 | 30.70100 | 120.65889 | 23 ft | 10 kts | 290° |
| 2026-04-28 12:49 | 30.70123 | 120.65814 | 23 ft | 10 kts | 290° |
| 2026-04-28 12:49 | 30.70146 | 120.65739 | 23 ft | 10 kts | 290° |
| 2026-04-28 12:49 | 30.70170 | 120.65667 | 25 ft | 9 kts | 291° |
| 2026-04-28 12:50 | 30.70193 | 120.65597 | 23 ft | 9 kts | 291° |
| 2026-04-28 12:50 | 30.70215 | 120.65528 | 25 ft | 10 kts | 290° |
| 2026-04-28 12:50 | 30.70246 | 120.65456 | 24 ft | 10 kts | 322° |
| 2026-04-28 12:50 | 30.70311 | 120.65463 | 23 ft | 10 kts | 21° |
| 2026-04-28 12:51 | 30.70377 | 120.65490 | 25 ft | 10 kts | 19° |
| 2026-04-28 12:51 | 30.70448 | 120.65516 | 23 ft | 11 kts | 3° |
| 2026-04-28 12:51 | 30.70488 | 120.65455 | 23 ft | 10 kts | 289° |
| 2026-04-28 12:51 | 30.70512 | 120.65378 | 23 ft | 10 kts | 290° |
| 2026-04-28 12:52 | 30.70515 | 120.65368 | 25 ft | 0 kts | 290° |
| 2026-04-28 12:52 | 30.70516 | 120.65363 | 24 ft | 2 kts | 290° |
| 2026-04-28 12:52 | 30.70527 | 120.65329 | 23 ft | 5 kts | 290° |
| 2026-04-28 12:52 | 30.70540 | 120.65288 | 23 ft | 6 kts | 290° |
| 2026-04-28 12:53 | 30.70555 | 120.65248 | 23 ft | 5 kts | 305° |
| 2026-04-28 12:53 | 30.70580 | 120.65244 | 23 ft | 3 kts | 17° |
| 2026-04-28 12:53 | 30.70599 | 120.65251 | 23 ft | 3 kts | 19° |
| 2026-04-28 12:53 | 30.70614 | 120.65258 | 23 ft | 1 kts | 20° |
| 2026-04-28 12:54 | 30.70615 | 120.65258 | 23 ft | 0 kts | 20° |